Time;durP1;ratioP1;P1;durP2;ratioP2;P2;SDS_P1;SDS_P2;PMS_P1;PMS_P2;Temp;Humidity;BMP_temperature;BMP_pressure;BME280_temperature;BME280_humidity;BME280_pressure;Samples;Min_cycle;Max_cycle;Signal;HPM_P1;HPM_P2
2022/08/22 00:02:19;;;;;;;25.23;12.40;;;;;;;;;;3358715;42;20103;-60
2022/08/22 00:05:05;;;;;;;21.70;11.30;;;;;;;;;;3352375;42;20169;-60
2022/08/22 00:07:42;;;;;;;18.52;10.90;;;;;;;;;;3354133;42;20112;-60
2022/08/22 00:10:32;;;;;;;24.23;11.88;;;;;;;;;;3361885;42;20615;-60
2022/08/22 00:13:13;;;;;;;21.98;11.98;;;;;;;;;;3348663;42;20091;-60
2022/08/22 00:16:17;;;;;;;24.20;11.80;;;;;;;;;;3352181;42;20096;-60
2022/08/22 00:19:17;;;;;;;20.93;10.33;;;;;;;;;;3344605;42;20088;-61
2022/08/22 00:22:14;;;;;;;22.15;11.23;;;;;;;;;;3358275;42;20084;-60
2022/08/22 00:24:51;;;;;;;22.88;11.57;;;;;;;;;;3362738;42;20096;-60
2022/08/22 00:27:32;;;;;;;24.90;11.88;;;;;;;;;;3356893;42;20138;-59
2022/08/22 00:30:12;;;;;;;24.23;11.65;;;;;;;;;;3347626;42;20084;-60
2022/08/22 00:32:55;;;;;;;21.43;11.23;;;;;;;;;;3349293;42;20417;-59
2022/08/22 00:35:42;;;;;;;23.30;11.95;;;;;;;;;;3354263;42;20612;-59
2022/08/22 00:38:26;;;;;;;20.80;11.55;;;;;;;;;;3349984;42;20189;-60
2022/08/22 00:41:00;;;;;;;20.67;11.38;;;;;;;;;;3349904;42;20092;-61
2022/08/22 00:44:07;;;;;;;20.92;11.23;;;;;;;;;;3362985;42;20163;-59
2022/08/22 00:46:53;;;;;;;21.80;10.83;;;;;;;;;;3354038;42;20110;-59
2022/08/22 00:49:41;;;;;;;22.13;11.18;;;;;;;;;;3361207;42;20163;-61
2022/08/22 00:52:53;;;;;;;21.88;11.38;;;;;;;;;;3362160;42;20214;-58
2022/08/22 00:55:41;;;;;;;20.60;11.48;;;;;;;;;;3353452;42;20560;-61
2022/08/22 00:58:32;;;;;;;22.52;11.85;;;;;;;;;;3364508;42;20099;-60
2022/08/22 01:01:06;;;;;;;24.03;12.00;;;;;;;;;;3358223;42;20084;-60
2022/08/22 01:03:45;;;;;;;20.75;11.07;;;;;;;;;;3365518;42;20131;-59
2022/08/22 01:06:24;;;;;;;23.88;11.50;;;;;;;;;;3366166;42;20131;-59
2022/08/22 01:09:18;;;;;;;24.00;11.90;;;;;;;;;;3353930;42;20092;-60
2022/08/22 01:12:13;;;;;;;23.15;11.77;;;;;;;;;;3350410;42;20553;-59
2022/08/22 01:14:52;;;;;;;24.13;11.57;;;;;;;;;;3360554;42;20475;-61
2022/08/22 01:17:43;;;;;;;19.77;10.93;;;;;;;;;;3355486;42;20173;-60
2022/08/22 01:20:38;;;;;;;21.23;11.27;;;;;;;;;;3355481;42;20143;-59
2022/08/22 01:23:37;;;;;;;21.20;11.52;;;;;;;;;;3362388;42;20544;-60
2022/08/22 01:26:17;;;;;;;21.67;11.50;;;;;;;;;;3364968;42;20579;-59
2022/08/22 01:29:13;;;;;;;21.43;11.13;;;;;;;;;;3365150;42;20135;-60
2022/08/22 01:32:09;;;;;;;24.55;11.50;;;;;;;;;;3360438;42;20095;-59
2022/08/22 01:34:53;;;;;;;19.45;11.02;;;;;;;;;;3366054;42;20126;-60
2022/08/22 01:37:31;;;;;;;20.65;10.98;;;;;;;;;;3352627;42;20588;-59
2022/08/22 01:40:49;;;;;;;22.33;11.80;;;;;;;;;;3360373;42;20088;-59
2022/08/22 01:43:26;;;;;;;22.03;11.00;;;;;;;;;;3350774;42;20135;-59
2022/08/22 01:46:15;;;;;;;21.40;11.05;;;;;;;;;;3373152;42;20080;-59
2022/08/22 01:49:11;;;;;;;19.20;10.65;;;;;;;;;;3359682;42;20084;-58
2022/08/22 01:51:58;;;;;;;20.42;11.10;;;;;;;;;;3363398;42;20464;-59
2022/08/22 01:54:48;;;;;;;22.27;11.30;;;;;;;;;;3361400;42;20157;-58
2022/08/22 01:57:20;;;;;;;22.40;11.47;;;;;;;;;;3368274;42;20134;-58
2022/08/22 01:59:54;;;;;;;20.77;11.18;;;;;;;;;;3357937;42;20100;-60
2022/08/22 02:02:31;;;;;;;20.98;10.27;;;;;;;;;;3365044;42;20080;-59
2022/08/22 02:05:23;;;;;;;22.05;11.20;;;;;;;;;;3365770;42;20572;-59
2022/08/22 02:08:00;;;;;;;20.38;11.20;;;;;;;;;;3361048;42;20560;-58
2022/08/22 02:10:50;;;;;;;21.27;10.63;;;;;;;;;;3361046;42;20153;-61
2022/08/22 02:13:59;;;;;;;21.42;11.27;;;;;;;;;;3361185;42;20163;-60
2022/08/22 02:16:35;;;;;;;19.20;10.93;;;;;;;;;;3360177;42;20084;-60
2022/08/22 02:19:15;;;;;;;18.33;10.80;;;;;;;;;;3352659;42;20099;-60
2022/08/22 02:21:54;;;;;;;20.98;11.02;;;;;;;;;;3371217;42;20110;-59
2022/08/22 02:24:48;;;;;;;21.23;11.10;;;;;;;;;;3359998;42;20192;-60
2022/08/22 02:27:34;;;;;;;21.42;11.18;;;;;;;;;;3354618;42;20112;-60
2022/08/22 02:30:06;;;;;;;17.70;10.80;;;;;;;;;;3356190;42;20148;-59
2022/08/22 02:32:40;;;;;;;20.60;11.20;;;;;;;;;;3361849;42;20168;-60
2022/08/22 02:35:11;;;;;;;20.08;10.50;;;;;;;;;;3361469;42;20116;-60
2022/08/22 02:37:54;;;;;;;20.30;10.63;;;;;;;;;;3361470;42;20545;-60
2022/08/22 02:40:34;;;;;;;20.63;10.93;;;;;;;;;;3355618;42;20587;-59
2022/08/22 02:43:16;;;;;;;19.83;10.93;;;;;;;;;;3358023;42;20110;-60
2022/08/22 02:46:16;;;;;;;28.13;13.55;;;;;;;;;;3362959;42;20517;-59
2022/08/22 02:49:20;;;;;;;17.27;10.65;;;;;;;;;;3359279;42;20565;-60
2022/08/22 02:51:58;;;;;;;19.20;10.57;;;;;;;;;;3364104;42;20198;-59
2022/08/22 02:55:07;;;;;;;22.40;11.13;;;;;;;;;;3357010;42;20091;-61
2022/08/22 02:57:51;;;;;;;21.27;11.05;;;;;;;;;;3360052;42;20109;-60
2022/08/22 03:00:26;;;;;;;19.23;11.50;;;;;;;;;;3356202;42;20084;-59
2022/08/22 03:03:03;;;;;;;19.83;12.25;;;;;;;;;;3372770;42;20096;-59
2022/08/22 03:05:34;;;;;;;19.83;11.37;;;;;;;;;;3367717;42;20177;-59
2022/08/22 03:08:24;;;;;;;18.08;10.73;;;;;;;;;;3363220;42;20096;-60
2022/08/22 03:11:10;;;;;;;16.90;10.85;;;;;;;;;;3367261;42;20155;-58
2022/08/22 03:14:00;;;;;;;19.25;11.15;;;;;;;;;;3367862;42;20080;-59
2022/08/22 03:16:39;;;;;;;19.73;10.75;;;;;;;;;;3359460;42;20125;-59
2022/08/22 03:19:30;;;;;;;19.83;11.13;;;;;;;;;;3351110;42;20080;-59
2022/08/22 03:22:07;;;;;;;24.45;11.13;;;;;;;;;;3353281;42;20096;-59
2022/08/22 03:25:00;;;;;;;20.40;11.50;;;;;;;;;;3368249;42;20107;-59
2022/08/22 03:27:40;;;;;;;23.67;11.07;;;;;;;;;;3352983;42;20550;-59
2022/08/22 03:30:37;;;;;;;19.73;10.73;;;;;;;;;;3344208;42;20111;-60
2022/08/22 03:33:14;;;;;;;18.17;10.80;;;;;;;;;;3351396;42;20545;-60
2022/08/22 03:35:45;;;;;;;19.10;11.23;;;;;;;;;;3359829;42;20083;-59
2022/08/22 03:38:31;;;;;;;20.35;11.57;;;;;;;;;;3364120;42;20509;-59
2022/08/22 03:41:11;;;;;;;23.10;11.43;;;;;;;;;;3360094;42;20632;-59
2022/08/22 03:43:58;;;;;;;16.85;10.88;;;;;;;;;;3371201;42;20505;-59
2022/08/22 03:46:39;;;;;;;21.97;11.47;;;;;;;;;;3365691;42;20095;-60
2022/08/22 03:49:43;;;;;;;17.30;10.98;;;;;;;;;;3351888;42;20080;-59
2022/08/22 03:52:20;;;;;;;19.42;11.05;;;;;;;;;;3359594;42;20536;-58
2022/08/22 03:54:57;;;;;;;16.98;9.93;;;;;;;;;;3371022;42;20178;-59
2022/08/22 03:57:44;;;;;;;20.52;10.75;;;;;;;;;;3371266;42;20155;-60
2022/08/22 04:00:20;;;;;;;20.37;9.90;;;;;;;;;;3364791;42;20508;-60
2022/08/22 04:03:20;;;;;;;16.25;10.20;;;;;;;;;;3358508;42;20092;-61
2022/08/22 04:06:12;;;;;;;15.45;10.00;;;;;;;;;;3360261;42;20092;-60
2022/08/22 04:08:50;;;;;;;23.10;9.90;;;;;;;;;;3367562;42;20181;-59
2022/08/22 04:11:59;;;;;;;18.05;9.93;;;;;;;;;;3361145;42;20454;-60
2022/08/22 04:14:50;;;;;;;17.67;8.80;;;;;;;;;;3356043;42;20131;-60
2022/08/22 04:17:33;;;;;;;17.38;9.57;;;;;;;;;;3353328;42;20873;-61
2022/08/22 04:20:42;;;;;;;15.05;9.30;;;;;;;;;;3367432;42;20518;-61
2022/08/22 04:23:42;;;;;;;14.52;8.98;;;;;;;;;;3363523;42;20095;-60
2022/08/22 04:26:17;;;;;;;15.27;10.07;;;;;;;;;;3355345;42;20087;-59
2022/08/22 04:28:51;;;;;;;14.60;9.57;;;;;;;;;;3342771;42;20088;-59
2022/08/22 04:31:28;;;;;;;15.30;9.35;;;;;;;;;;3355866;42;20100;-59
2022/08/22 04:34:11;;;;;;;13.60;8.95;;;;;;;;;;3354145;42;20149;-59
2022/08/22 04:36:44;;;;;;;13.95;9.23;;;;;;;;;;3355133;42;20096;-60
2022/08/22 04:39:34;;;;;;;14.35;9.23;;;;;;;;;;3360471;42;20215;-59
2022/08/22 04:42:22;;;;;;;13.43;9.07;;;;;;;;;;3365031;42;20166;-59
2022/08/22 04:45:26;;;;;;;14.63;9.23;;;;;;;;;;3363526;42;20091;-59
2022/08/22 04:48:13;;;;;;;14.45;9.18;;;;;;;;;;3355937;42;20171;-60
2022/08/22 04:51:05;;;;;;;16.63;8.65;;;;;;;;;;3353051;42;20157;-60
2022/08/22 04:53:49;;;;;;;16.08;9.30;;;;;;;;;;3366471;42;20099;-59
2022/08/22 04:56:48;;;;;;;13.20;9.43;;;;;;;;;;3365165;42;20106;-60
2022/08/22 04:59:19;;;;;;;15.27;8.82;;;;;;;;;;3361679;42;20203;-60
2022/08/22 05:01:57;;;;;;;15.38;8.68;;;;;;;;;;3353180;42;20570;-60
2022/08/22 05:04:31;;;;;;;14.05;9.30;;;;;;;;;;3365115;42;20593;-59
2022/08/22 05:07:23;;;;;;;15.48;9.00;;;;;;;;;;3357445;42;20088;-60
2022/08/22 05:10:34;;;;;;;15.57;8.33;;;;;;;;;;3353869;42;20095;-60
2022/08/22 05:13:08;;;;;;;13.18;8.57;;;;;;;;;;3328375;42;20140;-59
2022/08/22 05:15:45;;;;;;;19.50;9.48;;;;;;;;;;3361737;42;20107;-60
2022/08/22 05:18:22;;;;;;;15.40;8.82;;;;;;;;;;3352527;42;20568;-59
2022/08/22 05:20:54;;;;;;;13.20;8.50;;;;;;;;;;3368196;42;20096;-60
2022/08/22 05:23:38;;;;;;;13.17;8.47;;;;;;;;;;3364374;42;20096;-59
2022/08/22 05:26:10;;;;;;;16.80;10.80;;;;;;;;;;3363095;42;20096;-59
2022/08/22 05:28:47;;;;;;;16.05;8.63;;;;;;;;;;3362879;42;20106;-60
2022/08/22 05:31:28;;;;;;;13.70;8.32;;;;;;;;;;3361587;42;20092;-59
2022/08/22 05:34:04;;;;;;;12.02;7.93;;;;;;;;;;3362334;42;20117;-59
2022/08/22 05:36:58;;;;;;;15.97;8.00;;;;;;;;;;3354626;42;20088;-60
2022/08/22 05:39:29;;;;;;;15.45;8.75;;;;;;;;;;3357366;42;20099;-60
2022/08/22 05:42:01;;;;;;;12.85;8.30;;;;;;;;;;3360104;42;20940;-59
2022/08/22 05:44:34;;;;;;;11.88;7.95;;;;;;;;;;3354537;42;20104;-62
2022/08/22 05:47:25;;;;;;;12.02;7.90;;;;;;;;;;3359091;42;20099;-59
2022/08/22 05:50:00;;;;;;;12.57;7.30;;;;;;;;;;3359235;42;20556;-59
2022/08/22 05:53:04;;;;;;;11.70;7.45;;;;;;;;;;3360972;42;20139;-60
2022/08/22 05:55:54;;;;;;;12.93;7.20;;;;;;;;;;3359443;42;20115;-60
2022/08/22 05:58:38;;;;;;;12.70;7.10;;;;;;;;;;3351193;42;20103;-60
2022/08/22 06:01:32;;;;;;;14.55;7.40;;;;;;;;;;3364492;42;20080;-59
2022/08/22 06:04:24;;;;;;;13.40;7.37;;;;;;;;;;3355263;42;20102;-60
2022/08/22 06:07:06;;;;;;;12.63;7.30;;;;;;;;;;3366140;42;20092;-61
2022/08/22 06:10:14;;;;;;;12.57;6.80;;;;;;;;;;3362165;42;20556;-59
2022/08/22 06:13:00;;;;;;;12.38;7.00;;;;;;;;;;3354414;42;20088;-60
2022/08/22 06:16:07;;;;;;;11.40;6.85;;;;;;;;;;3359229;42;20103;-59
2022/08/22 06:18:40;;;;;;;14.03;6.90;;;;;;;;;;3359118;42;20489;-59
2022/08/22 06:21:33;;;;;;;15.20;6.47;;;;;;;;;;3359279;42;20562;-58
2022/08/22 06:24:07;;;;;;;9.95;5.82;;;;;;;;;;3358107;42;20088;-59
2022/08/22 06:26:41;;;;;;;11.40;6.40;;;;;;;;;;3359757;42;20088;-60
2022/08/22 06:29:16;;;;;;;12.10;7.53;;;;;;;;;;3370277;42;20196;-59
2022/08/22 06:31:47;;;;;;;12.53;6.30;;;;;;;;;;3351505;42;20103;-59
2022/08/22 06:34:33;;;;;;;14.15;7.50;;;;;;;;;;3347531;42;20092;-59
2022/08/22 06:37:06;;;;;;;12.65;6.80;;;;;;;;;;3357448;42;20106;-59
2022/08/22 06:39:39;;;;;;;12.63;6.90;;;;;;;;;;3354993;42;20084;-62
2022/08/22 06:42:12;;;;;;;11.80;7.07;;;;;;;;;;3356130;42;20100;-59
2022/08/22 06:44:49;;;;;;;12.97;7.07;;;;;;;;;;3360361;42;20100;-60
2022/08/22 06:48:09;;;;;;;11.18;6.72;;;;;;;;;;3353731;42;20193;-60
2022/08/22 06:50:42;;;;;;;10.73;6.00;;;;;;;;;;3356025;42;20201;-60
2022/08/22 06:53:16;;;;;;;9.98;5.80;;;;;;;;;;3357345;42;20084;-60
2022/08/22 06:55:55;;;;;;;12.38;6.82;;;;;;;;;;3365291;42;20096;-61
2022/08/22 06:58:26;;;;;;;10.77;6.30;;;;;;;;;;3369437;42;20092;-60
2022/08/22 07:01:01;;;;;;;13.85;6.90;;;;;;;;;;3369719;42;20080;-59
2022/08/22 07:03:37;;;;;;;12.02;6.63;;;;;;;;;;3362559;42;20131;-60
2022/08/22 07:06:13;;;;;;;12.98;6.50;;;;;;;;;;3364289;42;20159;-59
2022/08/22 07:08:46;;;;;;;11.55;7.22;;;;;;;;;;3357378;42;20087;-59
2022/08/22 07:11:29;;;;;;;11.27;7.40;;;;;;;;;;3343047;42;20706;-58
2022/08/22 07:14:06;;;;;;;10.90;6.78;;;;;;;;;;3352293;42;20156;-58
2022/08/22 07:16:50;;;;;;;12.10;7.00;;;;;;;;;;3352970;42;20155;-59
2022/08/22 07:19:23;;;;;;;12.57;6.85;;;;;;;;;;3348993;42;20171;-60
2022/08/22 07:21:54;;;;;;;16.38;7.50;;;;;;;;;;3357097;42;20746;-61
2022/08/22 07:24:28;;;;;;;9.93;6.43;;;;;;;;;;3356622;42;20088;-59
2022/08/22 07:27:25;;;;;;;15.38;6.65;;;;;;;;;;3360962;42;20104;-60
2022/08/22 07:30:05;;;;;;;11.10;6.85;;;;;;;;;;3349838;42;20231;-59
2022/08/22 07:32:58;;;;;;;14.80;7.25;;;;;;;;;;3350899;42;20096;-60
2022/08/22 07:35:43;;;;;;;10.52;6.40;;;;;;;;;;3370294;42;20100;-60
2022/08/22 07:38:42;;;;;;;10.50;6.70;;;;;;;;;;3367671;42;20099;-59
2022/08/22 07:41:24;;;;;;;11.57;6.72;;;;;;;;;;3364463;42;20110;-59
2022/08/22 07:44:19;;;;;;;11.25;6.53;;;;;;;;;;3366186;42;20494;-60
2022/08/22 07:46:53;;;;;;;10.95;6.80;;;;;;;;;;3355933;42;20095;-59
2022/08/22 07:49:33;;;;;;;11.10;7.20;;;;;;;;;;3372520;42;20167;-60
2022/08/22 07:52:09;;;;;;;11.03;6.20;;;;;;;;;;3364744;42;20092;-60
2022/08/22 07:54:56;;;;;;;10.43;6.03;;;;;;;;;;3356968;42;20107;-58
2022/08/22 07:57:33;;;;;;;10.02;6.15;;;;;;;;;;3366212;42;20100;-61
2022/08/22 08:00:11;;;;;;;10.25;5.88;;;;;;;;;;3366469;42;20126;-60
2022/08/22 08:02:48;;;;;;;10.63;6.32;;;;;;;;;;3364401;42;20144;-61
2022/08/22 08:05:20;;;;;;;9.67;5.90;;;;;;;;;;3364447;42;20088;-60
2022/08/22 08:07:53;;;;;;;11.32;5.88;;;;;;;;;;3357557;42;20643;-60
2022/08/22 08:10:30;;;;;;;10.07;5.75;;;;;;;;;;3365980;42;20630;-60
2022/08/22 08:13:04;;;;;;;10.65;5.63;;;;;;;;;;3365920;42;20513;-60
2022/08/22 08:15:36;;;;;;;9.50;6.20;;;;;;;;;;3345994;42;20159;-61
2022/08/22 08:18:13;;;;;;;15.70;6.77;;;;;;;;;;3355474;42;20106;-59
2022/08/22 08:20:47;;;;;;;12.30;6.05;;;;;;;;;;3348960;42;20144;-59
2022/08/22 08:23:19;;;;;;;10.32;6.30;;;;;;;;;;3357222;42;20095;-60
2022/08/22 08:26:11;;;;;;;10.90;6.93;;;;;;;;;;3354922;42;20134;-59
2022/08/22 08:28:50;;;;;;;10.90;7.10;;;;;;;;;;3360735;42;20099;-60
2022/08/22 08:31:31;;;;;;;13.47;7.10;;;;;;;;;;3351651;42;20557;-61
2022/08/22 08:34:07;;;;;;;11.07;7.03;;;;;;;;;;3352470;42;20152;-63
2022/08/22 08:36:51;;;;;;;11.52;7.50;;;;;;;;;;3354160;42;20096;-61
2022/08/22 08:39:47;;;;;;;12.07;7.78;;;;;;;;;;3349578;42;20563;-60
2022/08/22 08:43:40;;;;;;;12.57;6.90;;;;;;;;;;3351387;42;20079;-61
2022/08/22 08:45:50;;;;;;;17.43;8.03;;;;;;;;;;3355939;42;20597;-62
2022/08/22 08:48:30;;;;;;;19.15;8.02;;;;;;;;;;3360968;42;20138;-63
2022/08/22 08:51:14;;;;;;;16.17;7.65;;;;;;;;;;3357184;42;20115;-62
2022/08/22 08:53:51;;;;;;;13.05;8.30;;;;;;;;;;3369507;42;20155;-58
2022/08/22 08:56:37;;;;;;;16.58;8.18;;;;;;;;;;3354968;42;20095;-61
2022/08/22 08:59:34;;;;;;;14.80;7.77;;;;;;;;;;3354856;42;20104;-60
2022/08/22 09:02:35;;;;;;;14.73;8.25;;;;;;;;;;3354897;42;20104;-60
2022/08/22 09:05:34;;;;;;;14.00;7.85;;;;;;;;;;3353359;42;20098;-60
2022/08/22 09:08:36;;;;;;;13.05;7.68;;;;;;;;;;3368279;42;20132;-60
2022/08/22 09:11:26;;;;;;;14.50;7.45;;;;;;;;;;3363648;42;20107;-61
2022/08/22 09:14:20;;;;;;;13.00;7.67;;;;;;;;;;3354094;42;20165;-56
2022/08/22 09:17:26;;;;;;;13.27;7.85;;;;;;;;;;3358781;42;20094;-58
2022/08/22 09:20:18;;;;;;;13.75;8.13;;;;;;;;;;3363488;42;20158;-60
2022/08/22 09:23:12;;;;;;;14.82;7.80;;;;;;;;;;3356318;42;20114;-59
2022/08/22 09:25:51;;;;;;;15.60;7.68;;;;;;;;;;3354727;42;20146;-60
2022/08/22 09:28:44;;;;;;;11.87;7.40;;;;;;;;;;3371895;42;20088;-59
2022/08/22 09:31:29;;;;;;;11.15;7.18;;;;;;;;;;3365014;42;20167;-60
2022/08/22 09:34:11;;;;;;;12.63;7.45;;;;;;;;;;3365380;42;20122;-59
2022/08/22 09:36:45;;;;;;;11.70;7.00;;;;;;;;;;3359483;42;20158;-60
2022/08/22 09:39:24;;;;;;;12.77;7.80;;;;;;;;;;3371634;42;20096;-63
2022/08/22 09:42:10;;;;;;;10.77;6.60;;;;;;;;;;3355429;42;20087;-59
2022/08/22 09:44:54;;;;;;;14.60;7.45;;;;;;;;;;3357049;42;20100;-59
2022/08/22 09:47:30;;;;;;;14.15;7.13;;;;;;;;;;3346350;42;20146;-60
2022/08/22 09:50:52;;;;;;;11.95;6.82;;;;;;;;;;3351316;42;20095;-59
2022/08/22 09:53:29;;;;;;;11.10;6.70;;;;;;;;;;3346775;42;20557;-59
2022/08/22 09:56:07;;;;;;;11.40;6.50;;;;;;;;;;3370582;42;20127;-59
2022/08/22 09:58:42;;;;;;;12.60;6.70;;;;;;;;;;3364888;42;20197;-60
2022/08/22 10:01:17;;;;;;;11.75;6.30;;;;;;;;;;3363497;42;20108;-59
2022/08/22 10:04:13;;;;;;;11.10;5.95;;;;;;;;;;3365166;42;20150;-59
2022/08/22 10:07:05;;;;;;;12.65;6.55;;;;;;;;;;3363644;42;20218;-58
2022/08/22 10:10:02;;;;;;;12.33;6.30;;;;;;;;;;3365713;42;20162;-60
2022/08/22 10:13:09;;;;;;;10.48;6.07;;;;;;;;;;3347690;42;20102;-57
2022/08/22 10:15:56;;;;;;;12.98;6.03;;;;;;;;;;3364560;42;20569;-60
2022/08/22 10:18:34;;;;;;;11.93;6.45;;;;;;;;;;3364721;42;20096;-59
2022/08/22 10:21:33;;;;;;;9.98;6.40;;;;;;;;;;3365293;42;20102;-59
2022/08/22 10:24:27;;;;;;;10.77;6.23;;;;;;;;;;3362757;42;20158;-58
2022/08/22 10:27:02;;;;;;;10.25;6.00;;;;;;;;;;3356674;42;20080;-60
2022/08/22 10:29:50;;;;;;;10.73;6.32;;;;;;;;;;3354221;42;20135;-59
2022/08/22 10:32:46;;;;;;;14.45;6.03;;;;;;;;;;3346669;42;20197;-59
2022/08/22 10:35:26;;;;;;;12.23;5.82;;;;;;;;;;3361563;42;20092;-60
2022/08/22 10:38:05;;;;;;;10.37;5.70;;;;;;;;;;3371730;42;20609;-60
2022/08/22 10:40:50;;;;;;;9.70;6.00;;;;;;;;;;3358212;42;20584;-61
2022/08/22 10:43:52;;;;;;;10.55;5.93;;;;;;;;;;3358773;42;20092;-60
2022/08/22 10:46:58;;;;;;;10.32;5.82;;;;;;;;;;3346997;42;20111;-60
2022/08/22 10:49:34;;;;;;;11.32;5.75;;;;;;;;;;3369983;42;20095;-60
2022/08/22 10:52:20;;;;;;;12.87;6.17;;;;;;;;;;3364725;42;20161;-61
2022/08/22 10:54:55;;;;;;;11.27;5.72;;;;;;;;;;3352612;42;20207;-62
2022/08/22 10:57:57;;;;;;;11.82;6.03;;;;;;;;;;3356920;42;20096;-60
2022/08/22 11:00:37;;;;;;;11.48;5.70;;;;;;;;;;3362653;42;20080;-61
2022/08/22 11:03:26;;;;;;;11.52;5.88;;;;;;;;;;3369020;42;20131;-59
2022/08/22 11:05:59;;;;;;;12.57;6.20;;;;;;;;;;3358313;42;20111;-60
2022/08/22 11:08:48;;;;;;;10.90;5.65;;;;;;;;;;3363659;42;20099;-64
2022/08/22 11:11:25;;;;;;;13.07;6.20;;;;;;;;;;3370341;42;20864;-60
2022/08/22 11:14:11;;;;;;;9.43;5.80;;;;;;;;;;3364393;42;20251;-61
2022/08/22 11:17:21;;;;;;;11.43;6.00;;;;;;;;;;3356641;42;20099;-61
2022/08/22 11:20:02;;;;;;;10.73;6.07;;;;;;;;;;3363187;42;20139;-60
2022/08/22 11:22:45;;;;;;;12.07;6.25;;;;;;;;;;3369379;42;20570;-58
2022/08/22 11:25:40;;;;;;;11.13;5.88;;;;;;;;;;3355095;42;20179;-59
2022/08/22 11:28:32;;;;;;;11.05;5.80;;;;;;;;;;3364430;42;20226;-60
2022/08/22 11:31:20;;;;;;;10.38;5.85;;;;;;;;;;3363872;42;20127;-59
2022/08/22 11:34:17;;;;;;;8.80;5.53;;;;;;;;;;3364323;42;20596;-59
2022/08/22 11:37:07;;;;;;;10.55;5.97;;;;;;;;;;3351976;42;20147;-59
2022/08/22 11:40:18;;;;;;;10.63;5.70;;;;;;;;;;3358070;42;20502;-58
2022/08/22 11:42:55;;;;;;;9.00;5.80;;;;;;;;;;3352033;42;20463;-59
2022/08/22 11:45:28;;;;;;;12.43;5.90;;;;;;;;;;3364011;42;20099;-59
2022/08/22 11:48:07;;;;;;;11.47;6.30;;;;;;;;;;3363885;42;20143;-59
2022/08/22 11:50:46;;;;;;;10.00;5.22;;;;;;;;;;3363919;42;20610;-59
2022/08/22 11:53:37;;;;;;;11.18;5.93;;;;;;;;;;3364431;42;20142;-60
2022/08/22 11:56:26;;;;;;;10.95;5.88;;;;;;;;;;3356676;42;20238;-59
2022/08/22 11:59:04;;;;;;;9.65;5.88;;;;;;;;;;3363928;42;20150;-61
2022/08/22 12:01:39;;;;;;;12.33;5.27;;;;;;;;;;3363663;42;20102;-60
2022/08/22 12:04:26;;;;;;;9.10;5.70;;;;;;;;;;3364154;42;20630;-59
2022/08/22 12:07:01;;;;;;;12.43;5.70;;;;;;;;;;3364072;42;20578;-59
2022/08/22 12:10:08;;;;;;;10.55;5.68;;;;;;;;;;3370283;42;20086;-63
2022/08/22 12:12:51;;;;;;;9.40;5.70;;;;;;;;;;3362507;42;20314;-58
2022/08/22 12:15:28;;;;;;;9.40;5.73;;;;;;;;;;3362436;42;20158;-59
2022/08/22 12:18:20;;;;;;;10.38;6.05;;;;;;;;;;3357790;42;20199;-60
2022/08/22 12:21:13;;;;;;;10.90;6.00;;;;;;;;;;3365045;42;20139;-61
2022/08/22 12:24:17;;;;;;;10.20;5.85;;;;;;;;;;3364190;42;20099;-60
2022/08/22 12:26:54;;;;;;;10.00;5.78;;;;;;;;;;3339950;42;20112;-60
2022/08/22 12:29:44;;;;;;;13.20;5.70;;;;;;;;;;3366249;42;20099;-61
2022/08/22 12:32:32;;;;;;;9.18;5.85;;;;;;;;;;3372104;42;20096;-60
2022/08/22 12:35:21;;;;;;;10.05;5.85;;;;;;;;;;3358289;42;20135;-59
2022/08/22 12:38:34;;;;;;;10.57;5.63;;;;;;;;;;3351655;42;215334;-58
2022/08/22 12:41:27;;;;;;;11.00;5.80;;;;;;;;;;3372298;42;20135;-59
2022/08/22 12:44:04;;;;;;;10.60;6.10;;;;;;;;;;3372579;42;20092;-60
2022/08/22 12:46:42;;;;;;;9.80;6.40;;;;;;;;;;3365827;42;20139;-60
2022/08/22 12:49:28;;;;;;;9.48;6.13;;;;;;;;;;3371471;42;20900;-61
2022/08/22 12:52:13;;;;;;;12.18;6.13;;;;;;;;;;3364682;42;20139;-59
2022/08/22 12:54:50;;;;;;;10.82;6.10;;;;;;;;;;3363521;42;20586;-58
2022/08/22 12:57:38;;;;;;;10.10;5.90;;;;;;;;;;3364617;42;20187;-59
2022/08/22 13:00:20;;;;;;;10.82;6.13;;;;;;;;;;3365420;42;20087;-61
2022/08/22 13:02:52;;;;;;;10.68;5.90;;;;;;;;;;3372506;42;20155;-58
2022/08/22 13:05:24;;;;;;;11.75;6.60;;;;;;;;;;3358030;42;20135;-60
2022/08/22 13:07:58;;;;;;;10.27;6.03;;;;;;;;;;3346472;42;20236;-58
2022/08/22 13:10:37;;;;;;;11.63;6.20;;;;;;;;;;3345871;42;20107;-60
2022/08/22 13:13:08;;;;;;;15.57;6.25;;;;;;;;;;3358039;42;20135;-59
2022/08/22 13:15:44;;;;;;;10.60;6.13;;;;;;;;;;3351335;42;20139;-58
2022/08/22 13:18:20;;;;;;;11.40;5.60;;;;;;;;;;3351312;42;20864;-59
2022/08/22 13:20:53;;;;;;;10.38;6.10;;;;;;;;;;3348219;42;20565;-59
2022/08/22 13:23:27;;;;;;;11.00;6.13;;;;;;;;;;3357895;42;20095;-58
2022/08/22 13:26:03;;;;;;;11.05;6.07;;;;;;;;;;3370080;42;20177;-59
2022/08/22 13:28:56;;;;;;;10.60;6.03;;;;;;;;;;3353252;42;20627;-58
2022/08/22 13:31:32;;;;;;;13.05;6.10;;;;;;;;;;3351094;42;20540;-58
2022/08/22 13:34:11;;;;;;;11.23;6.05;;;;;;;;;;3371265;42;20131;-59
2022/08/22 13:36:47;;;;;;;12.77;5.93;;;;;;;;;;3358329;42;20088;-60
2022/08/22 13:39:27;;;;;;;10.70;6.50;;;;;;;;;;3350939;42;20100;-60
2022/08/22 13:41:59;;;;;;;11.50;6.13;;;;;;;;;;3339228;42;20096;-57
2022/08/22 13:44:42;;;;;;;11.50;6.20;;;;;;;;;;3355888;42;20102;-57
2022/08/22 13:47:16;;;;;;;10.52;6.00;;;;;;;;;;3364791;42;20577;-59
2022/08/22 13:50:06;;;;;;;13.60;6.23;;;;;;;;;;3355901;42;20092;-58
2022/08/22 13:52:49;;;;;;;13.98;6.22;;;;;;;;;;3360923;42;20096;-58
2022/08/22 13:55:26;;;;;;;11.77;6.32;;;;;;;;;;3356391;42;20174;-59
2022/08/22 13:58:05;;;;;;;10.80;6.10;;;;;;;;;;3356175;42;20102;-60
2022/08/22 14:01:06;;;;;;;10.88;6.00;;;;;;;;;;3344176;42;20571;-59
2022/08/22 14:03:38;;;;;;;11.97;6.07;;;;;;;;;;3357702;42;20102;-59
2022/08/22 14:06:30;;;;;;;11.32;6.07;;;;;;;;;;3358626;42;20096;-60
2022/08/22 14:09:40;;;;;;;16.23;6.10;;;;;;;;;;3350184;42;20096;-61
2022/08/22 14:12:14;;;;;;;13.05;5.80;;;;;;;;;;3350148;42;20091;-60
2022/08/22 14:14:47;;;;;;;10.07;5.70;;;;;;;;;;3356775;42;20123;-59
2022/08/22 14:17:21;;;;;;;9.83;5.57;;;;;;;;;;3350400;42;20144;-60
2022/08/22 14:19:59;;;;;;;10.50;5.88;;;;;;;;;;3364940;42;20121;-62
2022/08/22 14:22:32;;;;;;;10.20;5.75;;;;;;;;;;3354081;42;20251;-61
2022/08/22 14:25:07;;;;;;;12.05;5.82;;;;;;;;;;3355725;42;20091;-63
2022/08/22 14:27:52;;;;;;;12.27;5.88;;;;;;;;;;3356292;42;20091;-61
2022/08/22 14:30:29;;;;;;;11.17;6.10;;;;;;;;;;3354968;42;20099;-61
2022/08/22 14:33:21;;;;;;;10.77;6.07;;;;;;;;;;3357180;42;20522;-59
2022/08/22 14:35:57;;;;;;;10.93;6.18;;;;;;;;;;3353375;42;20906;-60
2022/08/22 14:38:31;;;;;;;10.80;6.43;;;;;;;;;;3344166;42;20104;-61
2022/08/22 14:41:09;;;;;;;14.32;6.20;;;;;;;;;;3359316;42;20158;-63
2022/08/22 14:44:17;;;;;;;9.77;5.97;;;;;;;;;;3344453;42;20100;-59
2022/08/22 14:46:59;;;;;;;11.20;6.20;;;;;;;;;;3352576;42;20150;-60
2022/08/22 14:49:54;;;;;;;11.25;6.10;;;;;;;;;;3348288;42;20095;-60
2022/08/22 14:52:36;;;;;;;10.63;5.85;;;;;;;;;;3364509;42;20143;-61
2022/08/22 14:55:21;;;;;;;11.43;6.25;;;;;;;;;;3359058;42;20091;-61
2022/08/22 14:58:01;;;;;;;10.03;5.97;;;;;;;;;;3368061;42;20155;-60
2022/08/22 15:00:35;;;;;;;11.07;5.78;;;;;;;;;;3347117;42;20522;-59
2022/08/22 15:03:13;;;;;;;12.60;6.28;;;;;;;;;;3352781;42;20096;-60
2022/08/22 15:05:55;;;;;;;11.70;6.28;;;;;;;;;;3347176;42;20126;-59
2022/08/22 15:08:30;;;;;;;12.35;6.20;;;;;;;;;;3361140;42;20091;-59
2022/08/22 15:11:20;;;;;;;13.23;6.50;;;;;;;;;;3345885;42;20087;-59
2022/08/22 15:14:01;;;;;;;12.82;6.55;;;;;;;;;;3356520;42;20107;-60
2022/08/22 15:16:46;;;;;;;13.68;6.30;;;;;;;;;;3366361;42;20103;-56
2022/08/22 15:19:40;;;;;;;12.27;6.43;;;;;;;;;;3362380;42;20084;-59
2022/08/22 15:22:25;;;;;;;15.80;6.47;;;;;;;;;;3358071;42;20143;-60
2022/08/22 15:25:00;;;;;;;13.03;6.60;;;;;;;;;;3358264;42;20139;-58
2022/08/22 15:27:32;;;;;;;12.75;7.10;;;;;;;;;;3358626;42;20088;-62
2022/08/22 15:30:06;;;;;;;15.32;6.88;;;;;;;;;;3357116;42;20222;-60
2022/08/22 15:32:39;;;;;;;10.13;6.40;;;;;;;;;;3360168;42;20100;-58
2022/08/22 15:35:13;;;;;;;12.77;6.45;;;;;;;;;;3353156;42;20178;-59
2022/08/22 15:38:03;;;;;;;12.97;6.20;;;;;;;;;;3362969;42;20765;-58
2022/08/22 15:40:36;;;;;;;14.73;6.47;;;;;;;;;;3358883;42;20100;-57
2022/08/22 15:43:17;;;;;;;13.40;6.75;;;;;;;;;;3359674;42;20150;-61
2022/08/22 15:45:51;;;;;;;14.57;6.68;;;;;;;;;;3353869;42;20579;-60
2022/08/22 15:48:33;;;;;;;13.95;7.30;;;;;;;;;;3352903;42;20163;-59
2022/08/22 15:51:14;;;;;;;11.10;6.70;;;;;;;;;;3366220;42;20201;-60
2022/08/22 15:54:16;;;;;;;13.52;6.75;;;;;;;;;;3358440;42;20538;-58
2022/08/22 15:56:59;;;;;;;14.68;6.60;;;;;;;;;;3355666;42;20577;-59
2022/08/22 15:59:33;;;;;;;16.20;6.93;;;;;;;;;;3368750;42;20689;-62
2022/08/22 16:02:33;;;;;;;12.27;6.53;;;;;;;;;;3361330;42;20186;-60
2022/08/22 16:05:08;;;;;;;14.20;7.10;;;;;;;;;;3357270;42;20170;-58
2022/08/22 16:07:42;;;;;;;14.45;7.10;;;;;;;;;;3368613;42;20100;-60
2022/08/22 16:10:23;;;;;;;13.90;7.10;;;;;;;;;;3364113;42;20087;-61